LHSN

Details ICAO LHSN
Name SZOLNOK
Region Hungary
Timezone Europe/Budapest (UTC+1.0)
Plans Departing 6
Arriving 5
Stats Elevation 322 ft / 98 m (AMSL)
Location 47.122859° 20.235500°
Runways 1
Magnetic Variation 4.923° E
Sunrise 2017-12-14 06:19:12 UTC / 2017-12-14 07:19:12 Local
Sunset 2017-12-14 14:51:01 UTC / 2017-12-14 15:51:01 Local
Advertisement - Login to hide

Runways

ID Width Length Bearing (true) Bearing (mag) Surface Threshold Offset Overrun Length
02 229 ft / 70 m 6,565 ft / 2,001 m 20.94° 16.02° Asphalt 0 ft / 0 m 0 ft / 0 m
20 229 ft / 70 m 6,565 ft / 2,001 m 200.94° 196.02° Asphalt 0 ft / 0 m 0 ft / 0 m

Map

Weather


0- 5 10 15 20 25 30 35+ Temperature / ° C

Clouds and Precipitation
Forecast for 2017-12-15 00:00 UTC. Updated 2 minutes ago

Ground ~20,000 ft ~40,000 ft Winds

METAR

LHSN 141915Z 21006KT 170V250 CAVOK 05/05 Q1007 TEMPO -RA RMK BLU

TAF

Not found

Frequencies

Tower 129.00 MHz OPERA TWR
Tower 130.25 MHz OPERA TWR
Warning: Do not use this data for real-world aviation or navigation. No guarantee of current accuracy is given.